ELY5184 LATI-LLBG
Flight info
| Callsign | ELY5184 |
|---|---|
| Flight time | 2h 18m |
| Altitude | 39000 |
| Route | ODRAS P92 MAVAR DCT NEGOT DCT DISOR UL608 FSK DCT RIKSO UP14 LAVTA UN135 NESIL UT39 TOMBI DCT IDAKU L35 PIKOG L609 ZUKKO |
| Aircraft | B738/M-SDE2E3FGHIRWXY/LB1 |
Departure
| Time | 2026-05-07 13:48 |
|---|---|
| Airport | Tirana International Airport Mother Teresa (LATI) |
Arrival
| Time | 2026-05-07 16:06 |
|---|---|
| Airport | Ben Gurion International Airport (LLBG) |
| Time | Latitude | Longitude | Altitude | Speed | Heading |
|---|---|---|---|---|---|
| 2026-05-07 13:30 | 41.42222 | 19.71479 | 131 ft | 0 kts | 264° |
| 2026-05-07 13:42 | 41.42223 | 19.71494 | 126 ft | 4 kts | 264° |
| 2026-05-07 13:42 | 41.42226 | 19.71522 | 129 ft | 4 kts | 283° |
| 2026-05-07 13:43 | 41.42212 | 19.71540 | 125 ft | 4 kts | 353° |
| 2026-05-07 13:43 | 41.42204 | 19.71541 | 129 ft | 0 kts | 354° |
| 2026-05-07 13:44 | 41.42205 | 19.71541 | 129 ft | 1 kts | 354° |
| 2026-05-07 13:45 | 41.42247 | 19.71535 | 126 ft | 12 kts | 354° |
| 2026-05-07 13:45 | 41.42361 | 19.71521 | 130 ft | 20 kts | 355° |
| 2026-05-07 13:45 | 41.42504 | 19.71504 | 130 ft | 20 kts | 354° |
| 2026-05-07 13:45 | 41.42630 | 19.71492 | 129 ft | 14 kts | 13° |
| 2026-05-07 13:46 | 41.42674 | 19.71585 | 130 ft | 12 kts | 85° |
| 2026-05-07 13:46 | 41.42681 | 19.71697 | 126 ft | 12 kts | 84° |
| 2026-05-07 13:46 | 41.42689 | 19.71809 | 126 ft | 13 kts | 84° |
| 2026-05-07 13:46 | 41.42673 | 19.71893 | 124 ft | 8 kts | 145° |
| 2026-05-07 13:47 | 41.42613 | 19.71905 | 122 ft | 16 kts | 175° |
| 2026-05-07 13:47 | 41.42246 | 19.71953 | 125 ft | 89 kts | 174° |
| 2026-05-07 13:47 | 41.41411 | 19.72066 | 128 ft | 150 kts | 174° |
| 2026-05-07 13:47 | 41.40244 | 19.72231 | 475 ft | 173 kts | 173° |
| 2026-05-07 13:48 | 41.39076 | 19.72416 | 1409 ft | 171 kts | 173° |
| 2026-05-07 13:48 | 41.37902 | 19.72592 | 2303 ft | 167 kts | 173° |
| 2026-05-07 13:48 | 41.36760 | 19.72767 | 3202 ft | 167 kts | 174° |
| 2026-05-07 13:48 | 41.35555 | 19.72939 | 3873 ft | 187 kts | 174° |
| 2026-05-07 13:49 | 41.34149 | 19.73139 | 4113 ft | 216 kts | 174° |
| 2026-05-07 13:49 | 41.32577 | 19.73370 | 4504 ft | 234 kts | 175° |
| 2026-05-07 13:49 | 41.30935 | 19.73609 | 5102 ft | 248 kts | 175° |
| 2026-05-07 13:49 | 41.29158 | 19.73869 | 5726 ft | 262 kts | 175° |
| 2026-05-07 13:50 | 41.27325 | 19.74135 | 6563 ft | 266 kts | 175° |
| 2026-05-07 13:50 | 41.25470 | 19.74406 | 7392 ft | 270 kts | 175° |
| 2026-05-07 13:50 | 41.23598 | 19.74843 | 8185 ft | 278 kts | 160° |
| 2026-05-07 13:50 | 41.22050 | 19.76412 | 9045 ft | 289 kts | 129° |
| 2026-05-07 13:51 | 41.21205 | 19.78844 | 9843 ft | 300 kts | 107° |
| 2026-05-07 13:51 | 41.20915 | 19.81651 | 10392 ft | 316 kts | 96° |
| 2026-05-07 13:51 | 41.20819 | 19.84685 | 10599 ft | 342 kts | 93° |
| 2026-05-07 13:51 | 41.20783 | 19.87952 | 10953 ft | 360 kts | 92° |
| 2026-05-07 13:52 | 41.20758 | 19.91315 | 11588 ft | 369 kts | 92° |
| 2026-05-07 13:52 | 41.20724 | 19.94732 | 12162 ft | 378 kts | 92° |
| 2026-05-07 13:52 | 41.20676 | 19.98249 | 12849 ft | 383 kts | 92° |
| 2026-05-07 13:52 | 41.20614 | 20.01805 | 13657 ft | 384 kts | 92° |
| 2026-05-07 13:53 | 41.20544 | 20.05350 | 14503 ft | 384 kts | 92° |
| 2026-05-07 13:53 | 41.20468 | 20.08870 | 15073 ft | 391 kts | 92° |
| 2026-05-07 13:53 | 41.20383 | 20.12547 | 15556 ft | 399 kts | 92° |
| 2026-05-07 13:53 | 41.20295 | 20.16199 | 16523 ft | 393 kts | 92° |
| 2026-05-07 13:54 | 41.20207 | 20.19806 | 17273 ft | 395 kts | 92° |
| 2026-05-07 13:54 | 41.20115 | 20.23491 | 17915 ft | 401 kts | 92° |
| 2026-05-07 13:54 | 41.20020 | 20.27218 | 18507 ft | 405 kts | 93° |
| 2026-05-07 13:54 | 41.19922 | 20.31001 | 18874 ft | 415 kts | 93° |
| 2026-05-07 13:55 | 41.19824 | 20.34777 | 19614 ft | 412 kts | 93° |
| 2026-05-07 13:55 | 41.19724 | 20.38607 | 20217 ft | 414 kts | 93° |
| 2026-05-07 13:55 | 41.19622 | 20.42444 | 20863 ft | 415 kts | 93° |
| 2026-05-07 13:55 | 41.19519 | 20.46276 | 21198 ft | 425 kts | 93° |
| 2026-05-07 13:56 | 41.19412 | 20.50205 | 21858 ft | 423 kts | 93° |
| 2026-05-07 13:56 | 41.19305 | 20.54117 | 22525 ft | 422 kts | 93° |
| 2026-05-07 13:56 | 41.19196 | 20.58024 | 23066 ft | 425 kts | 93° |
| 2026-05-07 13:56 | 41.19083 | 20.62000 | 23312 ft | 435 kts | 93° |
| 2026-05-07 13:57 | 41.18968 | 20.66011 | 23909 ft | 433 kts | 93° |
| 2026-05-07 13:57 | 41.18854 | 20.69964 | 24368 ft | 436 kts | 93° |
| 2026-05-07 13:57 | 41.18735 | 20.74001 | 24810 ft | 439 kts | 94° |
| 2026-05-07 13:57 | 41.18615 | 20.78057 | 25265 ft | 441 kts | 94° |
| 2026-05-07 13:58 | 41.18492 | 20.82151 | 25721 ft | 442 kts | 94° |
| 2026-05-07 13:58 | 41.18367 | 20.86256 | 26170 ft | 444 kts | 94° |
| 2026-05-07 13:58 | 41.18240 | 20.90378 | 26457 ft | 449 kts | 94° |
| 2026-05-07 13:58 | 41.18113 | 20.94472 | 26909 ft | 449 kts | 94° |
| 2026-05-07 13:59 | 41.17983 | 20.98623 | 27309 ft | 451 kts | 94° |
| 2026-05-07 13:59 | 41.17850 | 21.02797 | 27699 ft | 453 kts | 94° |
| 2026-05-07 13:59 | 41.17715 | 21.06984 | 28015 ft | 456 kts | 95° |
| 2026-05-07 13:59 | 41.17578 | 21.11210 | 28384 ft | 457 kts | 95° |
| 2026-05-07 14:00 | 41.17438 | 21.15439 | 28727 ft | 460 kts | 95° |
| 2026-05-07 14:00 | 41.17297 | 21.19694 | 29098 ft | 461 kts | 95° |
| 2026-05-07 14:00 | 41.17154 | 21.23950 | 29480 ft | 462 kts | 95° |
| 2026-05-07 14:00 | 41.17007 | 21.28252 | 29639 ft | 468 kts | 95° |
| 2026-05-07 14:01 | 41.16860 | 21.32533 | 30065 ft | 468 kts | 95° |
| 2026-05-07 14:01 | 41.16710 | 21.36853 | 30355 ft | 470 kts | 95° |
| 2026-05-07 14:01 | 41.16557 | 21.41202 | 30585 ft | 472 kts | 95° |
| 2026-05-07 14:01 | 41.16403 | 21.45554 | 30899 ft | 472 kts | 95° |
| 2026-05-07 14:02 | 41.16247 | 21.49918 | 31185 ft | 473 kts | 95° |
| 2026-05-07 14:02 | 41.16089 | 21.54288 | 31415 ft | 475 kts | 95° |
| 2026-05-07 14:02 | 41.15927 | 21.58682 | 31677 ft | 476 kts | 95° |
| 2026-05-07 14:02 | 41.15767 | 21.63020 | 32087 ft | 473 kts | 95° |
| 2026-05-07 14:03 | 41.15605 | 21.67384 | 32466 ft | 471 kts | 95° |
| 2026-05-07 14:03 | 41.15440 | 21.71737 | 32732 ft | 472 kts | 95° |
| 2026-05-07 14:03 | 41.15276 | 21.76041 | 33103 ft | 470 kts | 95° |
| 2026-05-07 14:03 | 41.15110 | 21.80368 | 33421 ft | 469 kts | 95° |
| 2026-05-07 14:04 | 41.14941 | 21.84710 | 33719 ft | 469 kts | 95° |
| 2026-05-07 14:04 | 41.14771 | 21.89033 | 34061 ft | 467 kts | 95° |
| 2026-05-07 14:04 | 41.14602 | 21.93289 | 34356 ft | 466 kts | 95° |
| 2026-05-07 14:04 | 41.14430 | 21.97588 | 34586 ft | 466 kts | 95° |
| 2026-05-07 14:05 | 41.14256 | 22.01890 | 34788 ft | 466 kts | 95° |
| 2026-05-07 14:05 | 41.14082 | 22.06143 | 35020 ft | 466 kts | 95° |
| 2026-05-07 14:05 | 41.13905 | 22.10453 | 35261 ft | 465 kts | 95° |
| 2026-05-07 14:05 | 41.13727 | 22.14749 | 35432 ft | 467 kts | 95° |
| 2026-05-07 14:06 | 41.13545 | 22.19067 | 35599 ft | 468 kts | 95° |
| 2026-05-07 14:06 | 41.13365 | 22.23334 | 35791 ft | 469 kts | 95° |
| 2026-05-07 14:06 | 41.13181 | 22.27652 | 35985 ft | 469 kts | 95° |
| 2026-05-07 14:06 | 41.12837 | 22.31964 | 36086 ft | 469 kts | 104° |
| 2026-05-07 14:07 | 41.11906 | 22.36111 | 36152 ft | 468 kts | 115° |
| 2026-05-07 14:07 | 41.10468 | 22.39975 | 36256 ft | 466 kts | 125° |
| 2026-05-07 14:07 | 41.08645 | 22.43527 | 36387 ft | 465 kts | 128° |
| 2026-05-07 14:07 | 41.06780 | 22.46987 | 36545 ft | 466 kts | 129° |
| 2026-05-07 14:08 | 41.04876 | 22.50489 | 36709 ft | 466 kts | 129° |
| 2026-05-07 14:08 | 41.03000 | 22.53950 | 36847 ft | 468 kts | 129° |
| 2026-05-07 14:08 | 41.01108 | 22.57461 | 36969 ft | 469 kts | 129° |
| 2026-05-07 14:08 | 40.99209 | 22.61005 | 37112 ft | 470 kts | 128° |
| 2026-05-07 14:09 | 40.97323 | 22.64541 | 37259 ft | 471 kts | 128° |
| 2026-05-07 14:09 | 40.95419 | 22.68115 | 37377 ft | 472 kts | 128° |
| 2026-05-07 14:09 | 40.93548 | 22.71632 | 37526 ft | 473 kts | 128° |
| 2026-05-07 14:09 | 40.91638 | 22.75216 | 37655 ft | 474 kts | 128° |
| 2026-05-07 14:10 | 40.89750 | 22.78757 | 37774 ft | 475 kts | 128° |
| 2026-05-07 14:10 | 40.87836 | 22.82341 | 37919 ft | 476 kts | 128° |
| 2026-05-07 14:10 | 40.85919 | 22.85925 | 38045 ft | 477 kts | 128° |
| 2026-05-07 14:11 | 40.82723 | 22.91891 | 38274 ft | 478 kts | 128° |
| 2026-05-07 14:11 | 40.80171 | 22.96647 | 38465 ft | 478 kts | 128° |
| 2026-05-07 14:11 | 40.78891 | 22.99029 | 38539 ft | 479 kts | 128° |
| 2026-05-07 14:11 | 40.76956 | 23.02625 | 38641 ft | 480 kts | 128° |
| 2026-05-07 14:12 | 40.75020 | 23.06221 | 38751 ft | 481 kts | 128° |
| 2026-05-07 14:12 | 40.73095 | 23.09791 | 38869 ft | 481 kts | 128° |
| 2026-05-07 14:12 | 40.71153 | 23.13390 | 38979 ft | 481 kts | 128° |
| 2026-05-07 14:13 | 40.67266 | 23.20580 | 39103 ft | 482 kts | 128° |
| 2026-05-07 14:13 | 40.63346 | 23.27811 | 39112 ft | 484 kts | 128° |
| 2026-05-07 14:14 | 40.59447 | 23.34990 | 39119 ft | 485 kts | 128° |
| 2026-05-07 14:14 | 40.55508 | 23.42224 | 39116 ft | 485 kts | 128° |
| 2026-05-07 14:15 | 40.51586 | 23.49412 | 39119 ft | 485 kts | 128° |
| 2026-05-07 14:15 | 40.47643 | 23.56621 | 39118 ft | 485 kts | 128° |
| 2026-05-07 14:16 | 40.43690 | 23.63832 | 39109 ft | 484 kts | 128° |
| 2026-05-07 14:16 | 40.39771 | 23.70963 | 39113 ft | 483 kts | 128° |
| 2026-05-07 14:17 | 40.35836 | 23.78109 | 39115 ft | 482 kts | 128° |
| 2026-05-07 14:17 | 40.31897 | 23.85243 | 39111 ft | 482 kts | 128° |
| 2026-05-07 14:18 | 40.27961 | 23.92357 | 39117 ft | 481 kts | 128° |
| 2026-05-07 14:18 | 40.24050 | 23.99409 | 39113 ft | 481 kts | 128° |
| 2026-05-07 14:19 | 40.20114 | 24.06490 | 39117 ft | 481 kts | 129° |
| 2026-05-07 14:19 | 40.16165 | 24.13580 | 39123 ft | 481 kts | 129° |
| 2026-05-07 14:20 | 40.12228 | 24.20631 | 39115 ft | 482 kts | 129° |
| 2026-05-07 14:20 | 40.08284 | 24.27679 | 39117 ft | 483 kts | 129° |
| 2026-05-07 14:21 | 40.04312 | 24.34762 | 39120 ft | 483 kts | 129° |
| 2026-05-07 14:21 | 40.00321 | 24.41862 | 39124 ft | 484 kts | 129° |
| 2026-05-07 14:22 | 39.96322 | 24.48961 | 39124 ft | 485 kts | 129° |
| 2026-05-07 14:22 | 39.92327 | 24.56037 | 39125 ft | 486 kts | 129° |
| 2026-05-07 14:23 | 39.88302 | 24.63150 | 39121 ft | 487 kts | 129° |
| 2026-05-07 14:23 | 39.84292 | 24.70219 | 39126 ft | 488 kts | 129° |
| 2026-05-07 14:24 | 39.80245 | 24.77339 | 39130 ft | 488 kts | 129° |
| 2026-05-07 14:24 | 39.76215 | 24.84412 | 39119 ft | 489 kts | 129° |
| 2026-05-07 14:25 | 39.72161 | 24.91512 | 39125 ft | 489 kts | 129° |
| 2026-05-07 14:25 | 39.68100 | 24.98610 | 39123 ft | 489 kts | 129° |
| 2026-05-07 14:26 | 39.64065 | 25.05645 | 39126 ft | 488 kts | 129° |
| 2026-05-07 14:26 | 39.60000 | 25.12717 | 39126 ft | 488 kts | 129° |
| 2026-05-07 14:27 | 39.55931 | 25.19779 | 39125 ft | 487 kts | 129° |
| 2026-05-07 14:27 | 39.51892 | 25.26774 | 39123 ft | 487 kts | 129° |
| 2026-05-07 14:28 | 39.47825 | 25.33802 | 39124 ft | 486 kts | 129° |
| 2026-05-07 14:28 | 39.43780 | 25.40778 | 39123 ft | 486 kts | 129° |
| 2026-05-07 14:29 | 39.39716 | 25.47770 | 39120 ft | 485 kts | 129° |
| 2026-05-07 14:29 | 39.35672 | 25.54713 | 39126 ft | 485 kts | 129° |
| 2026-05-07 14:30 | 39.31606 | 25.61678 | 39120 ft | 484 kts | 129° |
| 2026-05-07 14:30 | 39.27532 | 25.68642 | 39126 ft | 484 kts | 129° |
| 2026-05-07 14:31 | 39.23480 | 25.75553 | 39126 ft | 484 kts | 129° |
| 2026-05-07 14:31 | 39.19436 | 25.82435 | 39125 ft | 483 kts | 129° |
| 2026-05-07 14:32 | 39.15368 | 25.89344 | 39127 ft | 483 kts | 128° |
| 2026-05-07 14:32 | 39.11288 | 25.96258 | 39120 ft | 484 kts | 128° |
| 2026-05-07 14:33 | 39.07226 | 26.03127 | 39120 ft | 484 kts | 128° |
| 2026-05-07 14:33 | 39.03163 | 26.09984 | 39125 ft | 483 kts | 129° |
| 2026-05-07 14:34 | 38.99222 | 26.16621 | 39124 ft | 483 kts | 129° |
| 2026-05-07 14:34 | 38.95135 | 26.23489 | 39129 ft | 483 kts | 129° |
| 2026-05-07 14:35 | 38.91068 | 26.30311 | 39130 ft | 483 kts | 129° |
| 2026-05-07 14:35 | 38.86972 | 26.37167 | 39128 ft | 483 kts | 129° |
| 2026-05-07 14:36 | 38.83608 | 26.44570 | 39132 ft | 483 kts | 111° |
| 2026-05-07 14:36 | 38.81983 | 26.52857 | 39139 ft | 480 kts | 97° |
| 2026-05-07 14:37 | 38.81032 | 26.61362 | 39129 ft | 481 kts | 97° |
| 2026-05-07 14:37 | 38.79522 | 26.74080 | 39127 ft | 481 kts | 97° |
| 2026-05-07 14:38 | 38.78469 | 26.82508 | 39123 ft | 481 kts | 97° |
| 2026-05-07 14:38 | 38.77396 | 26.90976 | 39120 ft | 481 kts | 100° |
| 2026-05-07 14:39 | 38.75139 | 26.99000 | 39126 ft | 482 kts | 118° |
| 2026-05-07 14:39 | 38.71332 | 27.06002 | 39124 ft | 481 kts | 128° |
| 2026-05-07 14:40 | 38.67215 | 27.12792 | 39124 ft | 481 kts | 128° |
| 2026-05-07 14:40 | 38.63173 | 27.19556 | 39121 ft | 480 kts | 128° |
| 2026-05-07 14:41 | 38.59133 | 27.26393 | 39124 ft | 481 kts | 128° |
| 2026-05-07 14:41 | 38.55111 | 27.33195 | 39125 ft | 482 kts | 128° |
| 2026-05-07 14:42 | 38.51050 | 27.40041 | 39119 ft | 482 kts | 128° |
| 2026-05-07 14:42 | 38.47019 | 27.46814 | 39119 ft | 481 kts | 128° |
| 2026-05-07 14:43 | 38.42959 | 27.53621 | 39118 ft | 480 kts | 128° |
| 2026-05-07 14:43 | 38.38926 | 27.60374 | 39123 ft | 480 kts | 128° |
| 2026-05-07 14:44 | 38.34858 | 27.67172 | 39123 ft | 481 kts | 128° |
| 2026-05-07 14:44 | 38.30816 | 27.73915 | 39126 ft | 480 kts | 128° |
| 2026-05-07 14:45 | 38.26751 | 27.80680 | 39128 ft | 480 kts | 128° |
| 2026-05-07 14:45 | 38.22694 | 27.87422 | 39129 ft | 480 kts | 128° |
| 2026-05-07 14:46 | 38.18660 | 27.94117 | 39134 ft | 480 kts | 128° |
| 2026-05-07 14:46 | 38.14604 | 28.00838 | 39129 ft | 479 kts | 128° |
| 2026-05-07 14:47 | 38.10537 | 28.07564 | 39130 ft | 479 kts | 128° |
| 2026-05-07 14:47 | 38.06483 | 28.14255 | 39126 ft | 479 kts | 128° |
| 2026-05-07 14:48 | 38.02403 | 28.20973 | 39136 ft | 479 kts | 128° |
| 2026-05-07 14:48 | 37.98323 | 28.27678 | 39136 ft | 480 kts | 128° |
| 2026-05-07 14:49 | 37.94256 | 28.34350 | 39132 ft | 480 kts | 128° |
| 2026-05-07 14:49 | 37.90156 | 28.41061 | 39137 ft | 481 kts | 128° |
| 2026-05-07 14:50 | 37.86070 | 28.47737 | 39138 ft | 481 kts | 128° |
| 2026-05-07 14:50 | 37.81955 | 28.54445 | 39135 ft | 482 kts | 128° |
| 2026-05-07 14:51 | 37.77855 | 28.61118 | 39140 ft | 482 kts | 128° |
| 2026-05-07 14:51 | 37.73723 | 28.67830 | 39143 ft | 483 kts | 128° |
| 2026-05-07 14:52 | 37.70311 | 28.75052 | 39155 ft | 482 kts | 114° |
| 2026-05-07 14:52 | 37.67574 | 28.82788 | 39146 ft | 483 kts | 112° |
| 2026-05-07 14:53 | 37.64828 | 28.90552 | 39152 ft | 484 kts | 113° |
| 2026-05-07 14:53 | 37.62020 | 28.98309 | 39156 ft | 485 kts | 114° |
| 2026-05-07 14:54 | 37.59211 | 29.05984 | 39159 ft | 485 kts | 114° |
| 2026-05-07 14:54 | 37.56378 | 29.13704 | 39165 ft | 485 kts | 114° |
| 2026-05-07 14:55 | 37.53534 | 29.21442 | 39159 ft | 486 kts | 114° |
| 2026-05-07 14:55 | 37.50687 | 29.29172 | 39171 ft | 484 kts | 114° |
| 2026-05-07 14:56 | 37.47859 | 29.36833 | 39177 ft | 484 kts | 114° |
| 2026-05-07 14:56 | 37.45492 | 29.43225 | 39170 ft | 484 kts | 114° |
| 2026-05-07 14:57 | 37.42563 | 29.50888 | 39179 ft | 485 kts | 115° |
| 2026-05-07 14:57 | 37.39619 | 29.58501 | 39172 ft | 487 kts | 115° |
| 2026-05-07 14:58 | 37.36652 | 29.66195 | 39164 ft | 487 kts | 116° |
| 2026-05-07 14:58 | 37.34902 | 29.69857 | 39152 ft | 488 kts | 127° |
| 2026-05-07 14:58 | 37.32758 | 29.73092 | 39174 ft | 488 kts | 135° |
| 2026-05-07 14:59 | 37.27473 | 29.78399 | 39176 ft | 485 kts | 148° |
| 2026-05-07 14:59 | 37.21869 | 29.83072 | 39161 ft | 485 kts | 148° |
| 2026-05-07 15:00 | 37.16260 | 29.87848 | 39161 ft | 486 kts | 147° |
| 2026-05-07 15:00 | 37.10671 | 29.92666 | 39146 ft | 487 kts | 147° |
| 2026-05-07 15:01 | 37.05101 | 29.97428 | 39155 ft | 487 kts | 147° |
| 2026-05-07 15:01 | 36.99482 | 30.02209 | 39160 ft | 487 kts | 147° |
| 2026-05-07 15:02 | 36.93904 | 30.06952 | 39148 ft | 487 kts | 147° |
| 2026-05-07 15:02 | 36.88282 | 30.11730 | 39148 ft | 487 kts | 147° |
| 2026-05-07 15:03 | 36.82688 | 30.16474 | 39139 ft | 488 kts | 147° |
| 2026-05-07 15:03 | 36.77066 | 30.21240 | 39143 ft | 488 kts | 147° |
| 2026-05-07 15:04 | 36.71441 | 30.26005 | 39135 ft | 488 kts | 147° |
| 2026-05-07 15:04 | 36.65836 | 30.30745 | 39146 ft | 489 kts | 147° |
| 2026-05-07 15:05 | 36.60212 | 30.35492 | 39128 ft | 490 kts | 147° |
| 2026-05-07 15:05 | 36.54677 | 30.40156 | 39123 ft | 490 kts | 147° |
| 2026-05-07 15:06 | 36.49064 | 30.44876 | 39110 ft | 489 kts | 147° |
| 2026-05-07 15:06 | 36.43433 | 30.49604 | 39111 ft | 487 kts | 147° |
| 2026-05-07 15:07 | 36.37808 | 30.54319 | 39108 ft | 485 kts | 147° |
| 2026-05-07 15:07 | 36.32235 | 30.58981 | 39109 ft | 484 kts | 147° |
| 2026-05-07 15:08 | 36.26640 | 30.63654 | 39103 ft | 483 kts | 147° |
| 2026-05-07 15:08 | 36.21065 | 30.68302 | 39108 ft | 482 kts | 147° |
| 2026-05-07 15:09 | 36.15523 | 30.72914 | 39110 ft | 481 kts | 147° |
| 2026-05-07 15:09 | 36.09959 | 30.77538 | 39109 ft | 481 kts | 147° |
| 2026-05-07 15:10 | 36.04433 | 30.82122 | 39112 ft | 481 kts | 147° |
| 2026-05-07 15:10 | 35.98940 | 30.86935 | 39112 ft | 481 kts | 143° |
| 2026-05-07 15:11 | 35.93616 | 30.91871 | 39115 ft | 482 kts | 143° |
| 2026-05-07 15:11 | 35.88235 | 30.96847 | 39116 ft | 482 kts | 143° |
| 2026-05-07 15:12 | 35.82862 | 31.01759 | 39119 ft | 483 kts | 144° |
| 2026-05-07 15:12 | 35.77449 | 31.06674 | 39118 ft | 483 kts | 144° |
| 2026-05-07 15:13 | 35.72050 | 31.11563 | 39117 ft | 483 kts | 144° |
| 2026-05-07 15:13 | 35.66607 | 31.16486 | 39117 ft | 484 kts | 144° |
| 2026-05-07 15:14 | 35.61207 | 31.21363 | 39119 ft | 484 kts | 144° |
| 2026-05-07 15:14 | 35.55753 | 31.26280 | 39118 ft | 484 kts | 144° |
| 2026-05-07 15:15 | 35.50348 | 31.31145 | 39117 ft | 483 kts | 144° |
| 2026-05-07 15:15 | 35.44914 | 31.36028 | 39113 ft | 483 kts | 144° |
| 2026-05-07 15:16 | 35.39520 | 31.40867 | 39119 ft | 483 kts | 144° |
| 2026-05-07 15:16 | 35.34095 | 31.45725 | 39117 ft | 482 kts | 144° |
| 2026-05-07 15:17 | 35.28695 | 31.50552 | 39117 ft | 482 kts | 144° |
| 2026-05-07 15:17 | 35.23279 | 31.55385 | 39117 ft | 481 kts | 144° |
| 2026-05-07 15:18 | 35.17854 | 31.60219 | 39115 ft | 481 kts | 144° |
| 2026-05-07 15:18 | 35.12482 | 31.64997 | 39115 ft | 480 kts | 144° |
| 2026-05-07 15:19 | 35.07069 | 31.69803 | 39117 ft | 480 kts | 144° |
| 2026-05-07 15:19 | 35.01693 | 31.74569 | 39115 ft | 479 kts | 144° |
| 2026-05-07 15:20 | 34.96286 | 31.79354 | 39119 ft | 479 kts | 144° |
| 2026-05-07 15:20 | 34.90908 | 31.84106 | 39113 ft | 479 kts | 145° |
| 2026-05-07 15:21 | 34.85502 | 31.88875 | 39111 ft | 478 kts | 145° |
| 2026-05-07 15:21 | 34.80129 | 31.93606 | 39111 ft | 478 kts | 145° |
| 2026-05-07 15:22 | 34.74748 | 31.98337 | 39109 ft | 478 kts | 145° |
| 2026-05-07 15:22 | 34.69342 | 32.03082 | 39110 ft | 478 kts | 145° |
| 2026-05-07 15:23 | 34.63980 | 32.07780 | 39110 ft | 478 kts | 145° |
| 2026-05-07 15:23 | 34.58575 | 32.12509 | 39107 ft | 478 kts | 145° |
| 2026-05-07 15:24 | 34.53202 | 32.17202 | 39100 ft | 478 kts | 145° |
| 2026-05-07 15:24 | 34.47787 | 32.21924 | 39094 ft | 478 kts | 145° |
| 2026-05-07 15:25 | 34.42413 | 32.26602 | 39092 ft | 478 kts | 145° |
| 2026-05-07 15:25 | 34.37010 | 32.31298 | 39094 ft | 478 kts | 145° |
| 2026-05-07 15:26 | 34.31593 | 32.36000 | 39099 ft | 478 kts | 145° |
| 2026-05-07 15:26 | 34.26200 | 32.40672 | 39097 ft | 478 kts | 145° |
| 2026-05-07 15:27 | 34.20785 | 32.45356 | 39101 ft | 478 kts | 146° |
| 2026-05-07 15:27 | 34.15370 | 32.50032 | 39106 ft | 478 kts | 146° |
| 2026-05-07 15:28 | 34.09976 | 32.54683 | 39092 ft | 478 kts | 146° |
| 2026-05-07 15:28 | 34.04534 | 32.59367 | 38839 ft | 482 kts | 146° |
| 2026-05-07 15:29 | 34.01807 | 32.61712 | 38588 ft | 481 kts | 146° |
| 2026-05-07 15:29 | 33.99128 | 32.64013 | 38285 ft | 477 kts | 146° |
| 2026-05-07 15:29 | 33.96427 | 32.66332 | 38026 ft | 476 kts | 146° |
| 2026-05-07 15:29 | 33.93727 | 32.68648 | 37754 ft | 476 kts | 145° |
| 2026-05-07 15:30 | 33.91022 | 32.70967 | 37484 ft | 476 kts | 145° |
| 2026-05-07 15:30 | 33.88308 | 32.73290 | 37220 ft | 477 kts | 145° |
| 2026-05-07 15:30 | 33.85639 | 32.75574 | 36962 ft | 477 kts | 145° |
| 2026-05-07 15:30 | 33.82929 | 32.77891 | 36704 ft | 478 kts | 145° |
| 2026-05-07 15:31 | 33.80212 | 32.80212 | 36450 ft | 478 kts | 145° |
| 2026-05-07 15:31 | 33.77487 | 32.82538 | 36197 ft | 479 kts | 145° |
| 2026-05-07 15:31 | 33.74755 | 32.84868 | 35949 ft | 480 kts | 145° |
| 2026-05-07 15:31 | 33.72059 | 32.87166 | 35705 ft | 481 kts | 145° |
| 2026-05-07 15:32 | 33.69309 | 32.89508 | 35458 ft | 482 kts | 145° |
| 2026-05-07 15:32 | 33.66555 | 32.91851 | 35124 ft | 482 kts | 145° |
| 2026-05-07 15:32 | 33.63809 | 32.94187 | 34459 ft | 484 kts | 145° |
| 2026-05-07 15:32 | 33.61077 | 32.96508 | 33801 ft | 484 kts | 145° |
| 2026-05-07 15:33 | 33.58321 | 32.98847 | 33218 ft | 482 kts | 145° |
| 2026-05-07 15:33 | 33.55624 | 33.01136 | 32742 ft | 478 kts | 145° |
| 2026-05-07 15:33 | 33.52913 | 33.03434 | 32262 ft | 474 kts | 146° |
| 2026-05-07 15:33 | 33.50227 | 33.05709 | 31796 ft | 470 kts | 146° |
| 2026-05-07 15:34 | 33.47560 | 33.07967 | 31333 ft | 466 kts | 146° |
| 2026-05-07 15:34 | 33.44923 | 33.10197 | 30881 ft | 463 kts | 146° |
| 2026-05-07 15:34 | 33.42302 | 33.12412 | 30434 ft | 459 kts | 146° |
| 2026-05-07 15:34 | 33.39698 | 33.14610 | 29943 ft | 456 kts | 146° |
| 2026-05-07 15:35 | 33.37115 | 33.16790 | 29432 ft | 453 kts | 146° |
| 2026-05-07 15:35 | 33.34587 | 33.18922 | 28951 ft | 449 kts | 146° |
| 2026-05-07 15:35 | 33.32047 | 33.21061 | 28491 ft | 444 kts | 146° |
| 2026-05-07 15:35 | 33.29592 | 33.23128 | 28031 ft | 441 kts | 147° |
| 2026-05-07 15:36 | 33.27092 | 33.25231 | 27582 ft | 437 kts | 147° |
| 2026-05-07 15:36 | 33.24611 | 33.27316 | 27118 ft | 434 kts | 147° |
| 2026-05-07 15:36 | 33.22148 | 33.29385 | 26675 ft | 431 kts | 147° |
| 2026-05-07 15:36 | 33.19703 | 33.31439 | 26230 ft | 428 kts | 147° |
| 2026-05-07 15:37 | 33.17279 | 33.33493 | 25758 ft | 426 kts | 144° |
| 2026-05-07 15:37 | 33.15104 | 33.35879 | 25446 ft | 422 kts | 134° |
| 2026-05-07 15:37 | 33.13129 | 33.38404 | 25209 ft | 419 kts | 133° |
| 2026-05-07 15:37 | 33.11147 | 33.40992 | 24990 ft | 426 kts | 133° |
| 2026-05-07 15:38 | 33.09148 | 33.43606 | 24638 ft | 424 kts | 133° |
| 2026-05-07 15:38 | 33.07160 | 33.46190 | 24235 ft | 421 kts | 133° |
| 2026-05-07 15:38 | 33.05199 | 33.48720 | 23821 ft | 419 kts | 133° |
| 2026-05-07 15:38 | 33.03218 | 33.51262 | 23307 ft | 418 kts | 133° |
| 2026-05-07 15:39 | 33.01242 | 33.53785 | 22845 ft | 415 kts | 133° |
| 2026-05-07 15:39 | 32.99271 | 33.56296 | 22389 ft | 412 kts | 133° |
| 2026-05-07 15:39 | 32.97315 | 33.58784 | 21945 ft | 409 kts | 133° |
| 2026-05-07 15:39 | 32.95372 | 33.61252 | 21508 ft | 406 kts | 133° |
| 2026-05-07 15:40 | 32.93444 | 33.63701 | 21074 ft | 404 kts | 133° |
| 2026-05-07 15:40 | 32.91527 | 33.66133 | 20647 ft | 401 kts | 133° |
| 2026-05-07 15:40 | 32.89618 | 33.68554 | 20221 ft | 399 kts | 133° |
| 2026-05-07 15:40 | 32.87745 | 33.70928 | 19799 ft | 397 kts | 133° |
| 2026-05-07 15:41 | 32.85858 | 33.73318 | 19369 ft | 396 kts | 133° |
| 2026-05-07 15:41 | 32.83967 | 33.75712 | 18865 ft | 396 kts | 133° |
| 2026-05-07 15:41 | 32.82072 | 33.78110 | 18417 ft | 395 kts | 133° |
| 2026-05-07 15:41 | 32.80207 | 33.80468 | 17934 ft | 394 kts | 133° |
| 2026-05-07 15:42 | 32.78332 | 33.82836 | 17486 ft | 391 kts | 133° |
| 2026-05-07 15:42 | 32.76477 | 33.85179 | 17055 ft | 388 kts | 133° |
| 2026-05-07 15:42 | 32.74632 | 33.87506 | 16627 ft | 384 kts | 134° |
| 2026-05-07 15:42 | 32.72826 | 33.89785 | 16211 ft | 381 kts | 134° |
| 2026-05-07 15:43 | 32.71010 | 33.92074 | 15797 ft | 378 kts | 134° |
| 2026-05-07 15:43 | 32.69203 | 33.94349 | 15382 ft | 375 kts | 134° |
| 2026-05-07 15:43 | 32.67419 | 33.96595 | 14977 ft | 373 kts | 134° |
| 2026-05-07 15:43 | 32.65645 | 33.98827 | 14569 ft | 370 kts | 134° |
| 2026-05-07 15:44 | 32.64472 | 34.00300 | 14297 ft | 369 kts | 134° |
| 2026-05-07 15:44 | 32.62141 | 34.03229 | 13723 ft | 366 kts | 135° |
| 2026-05-07 15:44 | 32.60396 | 34.05420 | 13285 ft | 363 kts | 135° |
| 2026-05-07 15:44 | 32.59247 | 34.06862 | 13002 ft | 361 kts | 135° |
| 2026-05-07 15:45 | 32.56965 | 34.09723 | 12455 ft | 357 kts | 135° |
| 2026-05-07 15:45 | 32.55261 | 34.11859 | 12050 ft | 354 kts | 135° |
| 2026-05-07 15:45 | 32.53570 | 34.13977 | 11649 ft | 352 kts | 135° |
| 2026-05-07 15:45 | 32.51886 | 34.16085 | 11246 ft | 349 kts | 135° |
| 2026-05-07 15:46 | 32.49117 | 34.19548 | 10591 ft | 346 kts | 135° |
| 2026-05-07 15:46 | 32.47474 | 34.21604 | 10344 ft | 339 kts | 135° |
| 2026-05-07 15:46 | 32.45892 | 34.23582 | 10179 ft | 330 kts | 135° |
| 2026-05-07 15:47 | 32.44332 | 34.25530 | 10035 ft | 321 kts | 135° |
| 2026-05-07 15:47 | 32.42813 | 34.27426 | 9919 ft | 311 kts | 135° |
| 2026-05-07 15:47 | 32.41319 | 34.29287 | 9451 ft | 313 kts | 135° |
| 2026-05-07 15:47 | 32.39840 | 34.31166 | 9119 ft | 311 kts | 129° |
| 2026-05-07 15:48 | 32.38871 | 34.33385 | 8930 ft | 304 kts | 107° |
| 2026-05-07 15:48 | 32.38381 | 34.35784 | 8796 ft | 296 kts | 101° |
| 2026-05-07 15:48 | 32.37989 | 34.38106 | 8673 ft | 293 kts | 101° |
| 2026-05-07 15:48 | 32.37595 | 34.40467 | 8559 ft | 292 kts | 101° |
| 2026-05-07 15:49 | 32.37188 | 34.42829 | 8447 ft | 293 kts | 101° |
| 2026-05-07 15:49 | 32.36767 | 34.45201 | 8330 ft | 296 kts | 102° |
| 2026-05-07 15:49 | 32.36335 | 34.47593 | 8209 ft | 297 kts | 102° |
| 2026-05-07 15:49 | 32.35908 | 34.49939 | 8087 ft | 296 kts | 102° |
| 2026-05-07 15:50 | 32.35304 | 34.52276 | 7942 ft | 295 kts | 119° |
| 2026-05-07 15:50 | 32.34071 | 34.54167 | 7945 ft | 288 kts | 134° |
| 2026-05-07 15:50 | 32.32679 | 34.55873 | 7944 ft | 290 kts | 135° |
| 2026-05-07 15:50 | 32.31249 | 34.57589 | 7868 ft | 294 kts | 135° |
| 2026-05-07 15:51 | 32.29830 | 34.59298 | 7767 ft | 294 kts | 135° |
| 2026-05-07 15:51 | 32.28405 | 34.61025 | 7662 ft | 292 kts | 135° |
| 2026-05-07 15:51 | 32.26997 | 34.62740 | 7559 ft | 290 kts | 135° |
| 2026-05-07 15:51 | 32.25591 | 34.64460 | 7445 ft | 288 kts | 134° |
| 2026-05-07 15:52 | 32.24198 | 34.66165 | 7357 ft | 287 kts | 134° |
| 2026-05-07 15:52 | 32.22815 | 34.67859 | 7259 ft | 286 kts | 134° |
| 2026-05-07 15:52 | 32.21452 | 34.69527 | 7162 ft | 285 kts | 134° |
| 2026-05-07 15:52 | 32.20075 | 34.71213 | 7047 ft | 284 kts | 134° |
| 2026-05-07 15:53 | 32.18699 | 34.72898 | 6929 ft | 285 kts | 134° |
| 2026-05-07 15:53 | 32.17322 | 34.74582 | 6815 ft | 285 kts | 134° |
| 2026-05-07 15:53 | 32.15953 | 34.76272 | 6692 ft | 285 kts | 131° |
| 2026-05-07 15:53 | 32.14922 | 34.78271 | 6574 ft | 286 kts | 114° |
| 2026-05-07 15:54 | 32.14131 | 34.80391 | 6460 ft | 286 kts | 114° |
| 2026-05-07 15:54 | 32.13310 | 34.82537 | 6343 ft | 286 kts | 115° |
| 2026-05-07 15:54 | 32.12479 | 34.84668 | 6213 ft | 286 kts | 115° |
| 2026-05-07 15:54 | 32.11640 | 34.86803 | 6082 ft | 286 kts | 115° |
| 2026-05-07 15:55 | 32.10803 | 34.88924 | 5997 ft | 284 kts | 115° |
| 2026-05-07 15:55 | 32.09970 | 34.91030 | 5968 ft | 280 kts | 115° |
| 2026-05-07 15:55 | 32.09146 | 34.93109 | 5971 ft | 280 kts | 115° |
| 2026-05-07 15:55 | 32.08327 | 34.95176 | 5973 ft | 282 kts | 115° |
| 2026-05-07 15:56 | 32.07494 | 34.97278 | 5969 ft | 283 kts | 115° |
| 2026-05-07 15:56 | 32.06659 | 34.99382 | 5969 ft | 283 kts | 116° |
| 2026-05-07 15:56 | 32.05830 | 35.01470 | 5961 ft | 283 kts | 116° |
| 2026-05-07 15:56 | 32.04992 | 35.03578 | 5953 ft | 282 kts | 116° |
| 2026-05-07 15:57 | 32.04163 | 35.05668 | 5890 ft | 282 kts | 116° |
| 2026-05-07 15:57 | 32.03350 | 35.07720 | 5760 ft | 269 kts | 116° |
| 2026-05-07 15:57 | 32.02569 | 35.09691 | 5622 ft | 262 kts | 116° |
| 2026-05-07 15:57 | 32.01819 | 35.11582 | 5513 ft | 254 kts | 116° |
| 2026-05-07 15:58 | 32.01079 | 35.13443 | 5390 ft | 247 kts | 116° |
| 2026-05-07 15:58 | 32.00260 | 35.15179 | 5286 ft | 238 kts | 134° |
| 2026-05-07 15:58 | 31.98927 | 35.16221 | 5216 ft | 226 kts | 164° |
| 2026-05-07 15:58 | 31.97394 | 35.16500 | 5142 ft | 222 kts | 181° |
| 2026-05-07 15:59 | 31.95851 | 35.16493 | 5041 ft | 222 kts | 183° |
| 2026-05-07 15:59 | 31.94308 | 35.16317 | 4934 ft | 223 kts | 194° |
| 2026-05-07 15:59 | 31.92805 | 35.15859 | 4849 ft | 222 kts | 198° |
| 2026-05-07 15:59 | 31.91370 | 35.15358 | 4665 ft | 213 kts | 205° |
| 2026-05-07 16:00 | 31.90244 | 35.14330 | 4491 ft | 201 kts | 236° |
| 2026-05-07 16:00 | 31.89702 | 35.12874 | 4324 ft | 190 kts | 263° |
| 2026-05-07 16:00 | 31.89637 | 35.11352 | 4169 ft | 183 kts | 272° |
| 2026-05-07 16:00 | 31.89663 | 35.09873 | 3988 ft | 177 kts | 276° |
| 2026-05-07 16:01 | 31.90023 | 35.08548 | 3854 ft | 169 kts | 305° |
| 2026-05-07 16:01 | 31.90674 | 35.07363 | 3770 ft | 176 kts | 303° |
| 2026-05-07 16:01 | 31.91317 | 35.06130 | 3556 ft | 176 kts | 303° |
| 2026-05-07 16:01 | 31.91937 | 35.04929 | 3328 ft | 166 kts | 304° |
| 2026-05-07 16:02 | 31.92515 | 35.03814 | 3090 ft | 157 kts | 304° |
| 2026-05-07 16:02 | 31.93073 | 35.02739 | 2904 ft | 152 kts | 305° |
| 2026-05-07 16:02 | 31.93639 | 35.01649 | 2682 ft | 159 kts | 305° |
| 2026-05-07 16:02 | 31.94214 | 35.00541 | 2455 ft | 158 kts | 304° |
| 2026-05-07 16:03 | 31.94774 | 34.99462 | 2211 ft | 154 kts | 304° |
| 2026-05-07 16:03 | 31.95323 | 34.98401 | 2031 ft | 145 kts | 306° |
| 2026-05-07 16:03 | 31.95834 | 34.97418 | 1798 ft | 137 kts | 307° |
| 2026-05-07 16:03 | 31.96326 | 34.96472 | 1622 ft | 136 kts | 307° |
| 2026-05-07 16:04 | 31.96824 | 34.95512 | 1426 ft | 138 kts | 306° |
| 2026-05-07 16:04 | 31.97328 | 34.94543 | 1224 ft | 138 kts | 306° |
| 2026-05-07 16:04 | 31.97825 | 34.93586 | 1021 ft | 135 kts | 305° |
| 2026-05-07 16:04 | 31.98307 | 34.92656 | 839 ft | 133 kts | 306° |
| 2026-05-07 16:05 | 31.98786 | 34.91736 | 658 ft | 129 kts | 306° |
| 2026-05-07 16:05 | 31.99271 | 34.90822 | 422 ft | 133 kts | 307° |
| 2026-05-07 16:05 | 31.99757 | 34.89891 | 238 ft | 135 kts | 306° |
| 2026-05-07 16:05 | 32.00245 | 34.88947 | 120 ft | 129 kts | 305° |
| 2026-05-07 16:06 | 32.00646 | 34.88174 | 117 ft | 91 kts | 301° |
| 2026-05-07 16:06 | 32.00899 | 34.87684 | 120 ft | 47 kts | 301° |
| 2026-05-07 16:06 | 32.01013 | 34.87460 | 120 ft | 25 kts | 296° |
| 2026-05-07 16:06 | 32.01055 | 34.87295 | 120 ft | 18 kts | 279° |
| 2026-05-07 16:07 | 32.01061 | 34.87171 | 119 ft | 15 kts | 271° |
| 2026-05-07 16:07 | 32.01049 | 34.87059 | 118 ft | 14 kts | 225° |
| 2026-05-07 16:07 | 32.00986 | 34.87091 | 118 ft | 11 kts | 121° |
| 2026-05-07 16:07 | 32.00948 | 34.87167 | 116 ft | 11 kts | 121° |
| 2026-05-07 16:08 | 32.00898 | 34.87262 | 119 ft | 20 kts | 121° |
| 2026-05-07 16:08 | 32.00803 | 34.87445 | 117 ft | 30 kts | 121° |
| 2026-05-07 16:08 | 32.00692 | 34.87659 | 115 ft | 30 kts | 122° |
| 2026-05-07 16:08 | 32.00597 | 34.87842 | 119 ft | 17 kts | 121° |
| 2026-05-07 16:09 | 32.00514 | 34.87867 | 117 ft | 14 kts | 211° |
| 2026-05-07 16:09 | 32.00427 | 34.87804 | 118 ft | 17 kts | 211° |
| 2026-05-07 16:09 | 32.00298 | 34.87712 | 117 ft | 23 kts | 211° |
| 2026-05-07 16:09 | 32.00203 | 34.87616 | 119 ft | 13 kts | 268° |
| 2026-05-07 16:10 | 32.00245 | 34.87527 | 117 ft | 12 kts | 319° |
| 2026-05-07 16:10 | 32.00295 | 34.87506 | 119 ft | 3 kts | 345° |
| 2026-05-07 16:10 | 32.00298 | 34.87505 | 119 ft | 0 kts | 345° |